Terminal Aerodrome Forecast
Issued by NWS

Home | Current Version | Previous Version | Text Only | Print | Product List | Glossary On
Versions: 1 2 3 4 5 6 7 8 9 10 11 12 13 14 15 16 17 18 19 20 21 22
000
FTUS41 KCAR 281629 AAD
TAFPQI
TAF AMD
KPQI 281629Z 2816/2912 15005KT P6SM -FZRAPL OVC010
     FM281800 14007KT 2SM -SHSN OVC012
     FM290300 13004KT P6SM OVC010
     FM290600 VRB03KT P6SM OVC010=

USA.gov is the U.S. government's official web portal to all federal, state and local government web resources and services.